createdAt,value
2018-12-24T06:45:51.226Z,3
2018-12-24T06:50:51.329Z,7
2018-12-24T06:54:21.485Z,10
2018-12-24T06:55:21.577Z,13
2018-12-24T06:56:51.633Z,17
2018-12-24T06:57:51.749Z,20
2018-12-24T06:58:51.801Z,23
2018-12-24T06:59:51.852Z,27
2018-12-24T07:00:51.924Z,30
2018-12-24T07:01:21.948Z,33
2018-12-24T07:02:21.999Z,37
2018-12-24T07:02:52.139Z,40
2018-12-24T07:03:22.062Z,43
2018-12-24T07:04:22.121Z,47
2018-12-24T07:04:52.357Z,50
2018-12-24T07:05:22.179Z,53
2018-12-24T07:05:52.188Z,57
2018-12-24T07:06:22.295Z,60
2018-12-24T07:06:52.302Z,63
2018-12-24T07:07:22.350Z,67
2018-12-24T07:07:52.357Z,73
2018-12-24T07:08:22.381Z,77
2018-12-24T07:08:52.419Z,80
2018-12-24T07:09:52.448Z,83
2018-12-24T07:10:22.499Z,87
2018-12-24T07:10:52.556Z,90
2018-12-24T07:11:22.642Z,93
2018-12-24T07:11:52.580Z,100
2018-12-24T07:12:22.608Z,103
2018-12-24T07:12:52.615Z,110
2018-12-24T07:13:22.662Z,113
2018-12-24T07:13:52.733Z,117
2018-12-24T07:14:22.743Z,120
2018-12-24T07:14:52.773Z,123
2018-12-24T07:15:22.769Z,130
2018-12-24T07:15:52.805Z,140
2018-12-24T07:16:22.858Z,150
2018-12-24T07:16:52.866Z,157
2018-12-24T07:17:22.902Z,160
2018-12-24T07:18:22.955Z,153
2018-12-24T07:19:23.044Z,160
2018-12-24T07:19:53.047Z,167
2018-12-24T07:20:23.156Z,173
2018-12-24T07:20:53.110Z,177
2018-12-24T07:21:23.221Z,187
2018-12-24T07:21:53.192Z,207
2018-12-24T07:22:23.202Z,220
2018-12-24T07:22:53.261Z,240
2018-12-24T07:23:23.280Z,257
2018-12-24T07:23:53.322Z,270
2018-12-24T07:24:23.326Z,280
2018-12-24T07:24:53.380Z,290
2018-12-24T07:25:23.399Z,310
2018-12-24T07:25:53.447Z,337
2018-12-24T07:26:23.462Z,363
2018-12-24T07:26:53.473Z,387
2018-12-24T07:27:23.569Z,403
2018-12-24T07:27:53.562Z,413
2018-12-24T07:28:23.633Z,417
2018-12-24T07:28:58.966Z,413
2018-12-24T07:29:23.699Z,403
2018-12-24T07:29:53.764Z,397
2018-12-24T07:30:53.790Z,410
2018-12-24T07:31:23.833Z,427
2018-12-24T07:31:53.783Z,437
2018-12-24T07:32:23.882Z,450
2018-12-24T07:32:53.858Z,460
2018-12-24T07:33:23.936Z,470
2018-12-24T07:33:53.979Z,477
2018-12-24T07:34:32.114Z,483
2018-12-24T07:34:54.035Z,493
2018-12-24T07:35:24.067Z,510
2018-12-24T07:35:54.028Z,533
2018-12-24T07:36:24.112Z,563
2018-12-24T07:36:54.193Z,593
2018-12-24T07:37:24.118Z,620
2018-12-24T07:37:54.246Z,643
2018-12-24T07:38:24.262Z,670
2018-12-24T07:38:54.279Z,683
2018-12-24T07:39:24.296Z,697
2018-12-24T07:39:54.350Z,703
2018-12-24T07:40:24.367Z,710
2018-12-24T07:40:54.434Z,733
2018-12-24T07:41:24.416Z,753
2018-12-24T07:41:54.459Z,777
2018-12-24T07:42:24.482Z,810
2018-12-24T07:42:54.613Z,843
2018-12-24T07:43:24.513Z,873
2018-12-24T07:43:54.622Z,910
2018-12-24T07:44:24.676Z,933
2018-12-24T07:45:24.727Z,923
2018-12-24T07:45:54.720Z,937
2018-12-24T07:46:24.737Z,963
2018-12-24T07:46:54.774Z,980
2018-12-24T07:47:24.774Z,973
2018-12-24T07:47:54.822Z,963
2018-12-24T07:48:54.924Z,973
2018-12-24T07:49:24.862Z,987
2018-12-24T07:49:54.946Z,1003
2018-12-24T07:50:25.063Z,1037
2018-12-24T07:50:55.013Z,1090
2018-12-24T07:51:25.038Z,1157
2018-12-24T07:51:55.098Z,1220
2018-12-24T07:52:25.098Z,1280
2018-12-24T07:52:55.110Z,1357
2018-12-24T07:53:25.153Z,1453
2018-12-24T07:53:55.195Z,1523
2018-12-24T07:54:25.271Z,1547
2018-12-24T07:54:55.257Z,1557
2018-12-24T07:55:25.289Z,1597
2018-12-24T07:55:55.260Z,1697
2018-12-24T07:56:25.336Z,1820
2018-12-24T07:56:55.334Z,1923
2018-12-24T07:57:25.360Z,2013
2018-12-24T07:57:55.386Z,2033
2018-12-24T07:58:25.448Z,1937
2018-12-24T07:58:55.516Z,1827
2018-12-24T07:59:25.510Z,1860
2018-12-24T07:59:55.564Z,1930
2018-12-24T08:00:25.570Z,1960
2018-12-24T08:00:57.116Z,1947
2018-12-24T08:01:25.655Z,1890
2018-12-24T08:01:55.641Z,1790
2018-12-24T08:02:25.711Z,1670
2018-12-24T08:02:55.703Z,1603
2018-12-24T08:03:25.745Z,1607
2018-12-24T08:03:55.760Z,1677
2018-12-24T08:04:25.912Z,1707
2018-12-24T08:04:55.816Z,1633
2018-12-24T08:05:25.881Z,1493
2018-12-24T08:05:55.878Z,1353
2018-12-24T08:06:26.147Z,1283
2018-12-24T08:06:55.940Z,1267
2018-12-24T08:07:25.974Z,1287
2018-12-24T08:07:56.021Z,1307
2018-12-24T08:08:26.069Z,1377
2018-12-24T08:08:56.077Z,1427
2018-12-24T08:09:26.194Z,1433
2018-12-24T08:09:56.129Z,1440
2018-12-24T08:10:26.196Z,1470
2018-12-24T08:10:56.187Z,1490
2018-12-24T08:11:26.352Z,1460
2018-12-24T08:11:56.244Z,1467
2018-12-24T08:12:26.340Z,1470
2018-12-24T08:12:56.332Z,1437
2018-12-24T08:13:26.381Z,1413
2018-12-24T08:13:56.434Z,1393
2018-12-24T08:14:32.857Z,1347
2018-12-24T08:15:26.461Z,1450
2018-12-24T08:15:56.540Z,1610
2018-12-24T08:16:26.557Z,1787
2018-12-24T08:16:56.555Z,1920
2018-12-24T08:17:26.628Z,1987
2018-12-24T08:17:56.642Z,2100
2018-12-24T08:18:26.664Z,2283
2018-12-24T08:18:56.714Z,2427
2018-12-24T08:19:26.982Z,2517
2018-12-24T08:19:56.778Z,2547
2018-12-24T08:20:26.773Z,2517
2018-12-24T08:21:27.004Z,2423
2018-12-24T08:21:56.906Z,2333
2018-12-24T08:22:26.921Z,2417
2018-12-24T08:22:56.958Z,2537
2018-12-24T08:23:26.996Z,2627
2018-12-24T08:23:57.015Z,2677
2018-12-24T08:24:27.049Z,2690
2018-12-24T08:24:57.127Z,2670
2018-12-24T08:25:27.150Z,2663
2018-12-24T08:25:57.123Z,2717
2018-12-24T08:26:27.176Z,2817
2018-12-24T08:26:57.167Z,2983
2018-12-24T08:27:27.270Z,3103
2018-12-24T08:27:57.257Z,3140
2018-12-24T08:28:27.291Z,3167
2018-12-24T08:28:57.287Z,3250
2018-12-24T08:29:27.339Z,3267
2018-12-24T08:29:57.405Z,3157
2018-12-24T08:30:27.385Z,2983
2018-12-24T08:30:57.507Z,2877
2018-12-24T08:31:27.517Z,2767
2018-12-24T08:31:57.503Z,2637
2018-12-24T08:32:27.523Z,2613
2018-12-24T08:32:57.565Z,2553
2018-12-24T08:33:27.627Z,2357
2018-12-24T08:33:57.625Z,2173
2018-12-24T08:34:27.689Z,2250
2018-12-24T08:34:57.763Z,2577
2018-12-24T08:35:27.696Z,2963
2018-12-24T08:35:57.767Z,3223
2018-12-24T08:36:27.792Z,3410
2018-12-24T08:36:57.798Z,3420
2018-12-24T08:37:27.919Z,3467
2018-12-24T08:37:57.875Z,3637
2018-12-24T08:38:27.979Z,3783
2018-12-24T08:38:57.947Z,3870
2018-12-24T08:39:27.996Z,3943
2018-12-24T08:39:58.009Z,4070
2018-12-24T08:40:28.092Z,4203
2018-12-24T08:40:58.047Z,4323
2018-12-24T08:41:28.070Z,4443
2018-12-24T08:41:58.107Z,4537
2018-12-24T08:42:28.180Z,4583
2018-12-24T08:42:58.174Z,4647
2018-12-24T08:43:28.249Z,4760
2018-12-24T08:43:58.239Z,4820
2018-12-24T08:44:28.336Z,4840
2018-12-24T08:44:58.330Z,4987
2018-12-24T08:45:28.386Z,5047
2018-12-24T08:45:58.483Z,4953
2018-12-24T08:46:28.389Z,4720
2018-12-24T08:46:58.426Z,4357
2018-12-24T08:47:28.533Z,4207
2018-12-24T08:47:58.476Z,4377
2018-12-24T08:48:28.552Z,4690
2018-12-24T08:48:58.524Z,4777
2018-12-24T08:49:28.582Z,4727
2018-12-24T08:49:58.654Z,4580
2018-12-24T08:50:28.610Z,4597
2018-12-24T08:50:58.668Z,4817
2018-12-24T08:51:28.686Z,5163
2018-12-24T08:51:58.705Z,5550
2018-12-24T08:52:28.739Z,5827
2018-12-24T08:52:58.789Z,5927
2018-12-24T08:53:28.793Z,5807
2018-12-24T08:53:58.846Z,5707
2018-12-24T08:54:28.852Z,5983
2018-12-24T08:54:58.916Z,6283
2018-12-24T08:55:28.915Z,6413
2018-12-24T08:55:58.954Z,6623
2018-12-24T08:56:29.261Z,6677
2018-12-24T08:56:59.017Z,6340
2018-12-24T08:57:29.057Z,6087
2018-12-24T08:57:59.092Z,5993
2018-12-24T08:58:29.152Z,5687
2018-12-24T08:58:59.133Z,5340
2018-12-24T08:59:29.218Z,5643
2018-12-24T08:59:59.255Z,6110
2018-12-24T09:00:29.230Z,6240
2018-12-24T09:00:59.379Z,6303
2018-12-24T09:01:29.326Z,6137
2018-12-24T09:01:59.347Z,5640
2018-12-24T09:02:29.375Z,5320
2018-12-24T09:02:59.468Z,5153
2018-12-24T09:03:29.452Z,4823
2018-12-24T09:03:59.500Z,4360
2018-12-24T09:04:29.523Z,4120
2018-12-24T09:04:59.642Z,4370
2018-12-24T09:05:29.586Z,4947
2018-12-24T09:05:59.557Z,5453
2018-12-24T09:06:29.636Z,5747
2018-12-24T09:06:59.728Z,5803
2018-12-24T09:07:29.695Z,5587
2018-12-24T09:07:59.770Z,5773
2018-12-24T09:08:29.756Z,5697
2018-12-24T09:08:59.810Z,5570
2018-12-24T09:09:29.821Z,5537
2018-12-24T09:09:59.963Z,5813
2018-12-24T09:10:29.878Z,6337
2018-12-24T09:10:59.971Z,6607
2018-12-24T09:11:29.943Z,6740
2018-12-24T09:12:00.004Z,6793
2018-12-24T09:12:30.034Z,6850
2018-12-24T09:13:00.073Z,7070
2018-12-24T09:13:30.048Z,7267
2018-12-24T09:14:00.119Z,7180
2018-12-24T09:14:30.126Z,6953
2018-12-24T09:15:00.233Z,6767
2018-12-24T09:15:30.194Z,6433
2018-12-24T09:16:00.290Z,6107
2018-12-24T09:17:00.729Z,6340
2018-12-24T09:17:31.136Z,6480
2018-12-24T09:18:00.642Z,6100
2018-12-24T09:18:30.370Z,5580
2018-12-24T09:19:00.881Z,5347
2018-12-24T09:19:30.440Z,5670
2018-12-24T09:20:00.860Z,5823
2018-12-24T09:20:30.491Z,6290
2018-12-24T09:21:00.644Z,6773
2018-12-24T09:21:30.555Z,7180
2018-12-24T09:22:00.827Z,7430
2018-12-24T09:22:30.627Z,7370
2018-12-24T09:23:00.734Z,7320
2018-12-24T09:23:30.678Z,7243
2018-12-24T09:24:00.799Z,7253
2018-12-24T09:24:30.734Z,7537
2018-12-24T09:25:00.781Z,7850
2018-12-24T09:25:30.956Z,8193
2018-12-24T09:26:00.791Z,8900
2018-12-24T09:26:30.856Z,9403
2018-12-24T09:27:00.867Z,9607
2018-12-24T09:27:30.946Z,9673
2018-12-24T09:28:00.914Z,9820
2018-12-24T09:28:31.003Z,10477
2018-12-24T09:29:01.025Z,11287
2018-12-24T09:29:31.041Z,12257
2018-12-24T09:30:01.196Z,12510
2018-12-24T09:30:31.099Z,11993
2018-12-24T09:31:01.153Z,11517
2018-12-24T09:31:31.156Z,11633
2018-12-24T09:32:01.157Z,12143
2018-12-24T09:32:31.282Z,11987
2018-12-24T09:33:01.253Z,11877
2018-12-24T09:33:31.287Z,12070
2018-12-24T09:34:01.320Z,12273
2018-12-24T09:34:31.359Z,12793
2018-12-24T09:35:01.398Z,13440
2018-12-24T09:35:31.408Z,13870
2018-12-24T09:36:01.454Z,14287
2018-12-24T09:36:31.463Z,15000
2018-12-24T09:37:01.488Z,15333
2018-12-24T09:37:31.503Z,15827
2018-12-24T09:38:01.568Z,17160
2018-12-24T09:38:31.562Z,17517
2018-12-24T09:39:01.666Z,19397
2018-12-24T09:39:31.637Z,18903
2018-12-24T09:40:01.728Z,17400
2018-12-24T09:40:31.710Z,20063
2018-12-24T09:41:01.771Z,20760
2018-12-24T09:41:31.762Z,20120
2018-12-24T09:42:01.769Z,18573
2018-12-24T09:42:31.823Z,19037
2018-12-24T09:43:01.862Z,18983
2018-12-24T09:43:31.861Z,19727
2018-12-24T09:44:01.906Z,19830
2018-12-24T09:44:31.928Z,22093
2018-12-24T09:45:01.958Z,21850
2018-12-24T09:45:31.997Z,20477
2018-12-24T09:46:02.026Z,20310
2018-12-24T09:46:32.047Z,20190
2018-12-24T09:47:02.177Z,21133
2018-12-24T09:47:32.238Z,23180
2018-12-24T09:48:02.142Z,24807
2018-12-24T09:48:32.194Z,26197
2018-12-24T09:49:02.239Z,27027
2018-12-24T09:49:32.279Z,27220
2018-12-24T09:50:02.327Z,25473
2018-12-24T09:50:32.442Z,23447
2018-12-24T09:51:02.387Z,23027
2018-12-24T09:51:32.386Z,22823
2018-12-24T09:52:02.417Z,21403
2018-12-24T09:52:32.458Z,19153
2018-12-24T09:53:02.481Z,18190
2018-12-24T09:53:32.542Z,17560
2018-12-24T09:54:02.597Z,17423
2018-12-24T09:54:32.578Z,17833
2018-12-24T09:55:02.598Z,19390
2018-12-24T09:55:32.670Z,22023
2018-12-24T09:56:02.659Z,21290
2018-12-24T09:56:32.726Z,18940
2018-12-24T09:57:02.778Z,16950
2018-12-24T09:57:32.789Z,15637
2018-12-24T09:58:02.786Z,14707
2018-12-24T09:58:32.856Z,13617
2018-12-24T09:59:02.839Z,12203
2018-12-24T09:59:32.909Z,11440
2018-12-24T10:00:02.882Z,10290
2018-12-24T10:00:32.962Z,9137
2018-12-24T10:01:02.940Z,8170
2018-12-24T10:01:32.995Z,7563
2018-12-24T10:02:03.060Z,6520
2018-12-24T10:02:33.124Z,5817
2018-12-24T10:03:03.213Z,6180
2018-12-24T10:03:33.182Z,6443
2018-12-24T10:04:03.231Z,5987
2018-12-24T10:04:33.179Z,5677
2018-12-24T10:05:03.245Z,5903
2018-12-24T10:05:33.281Z,6437
2018-12-24T10:06:03.255Z,7133
2018-12-24T10:06:33.330Z,6517
2018-12-24T10:07:03.312Z,5127
2018-12-24T10:07:33.400Z,4237
2018-12-24T10:08:03.505Z,3723
2018-12-24T10:08:33.486Z,3387
2018-12-24T10:09:03.607Z,3367
2018-12-24T10:09:33.535Z,3527
2018-12-24T10:10:03.521Z,3963
2018-12-24T10:10:33.535Z,4750
2018-12-24T10:11:04.192Z,5487
2018-12-24T10:11:34.127Z,6913
2018-12-24T10:12:04.204Z,8247
2018-12-24T10:12:34.219Z,7740
2018-12-24T10:13:04.282Z,6677
2018-12-24T10:13:34.274Z,6500
2018-12-24T10:14:04.337Z,5867
2018-12-24T10:14:34.339Z,5843
2018-12-24T10:15:07.688Z,5787
2018-12-24T10:15:34.432Z,6950
2018-12-24T10:16:04.482Z,8037
2018-12-24T10:16:34.459Z,7583
2018-12-24T10:17:04.534Z,6550
2018-12-24T10:17:34.521Z,6857
2018-12-24T10:18:04.542Z,7487
2018-12-24T10:18:34.590Z,7223
2018-12-24T10:19:04.586Z,6153
2018-12-24T10:19:34.608Z,5383
2018-12-24T10:20:04.737Z,5407
2018-12-24T10:20:34.699Z,5553
2018-12-24T10:21:04.706Z,5507
2018-12-24T10:21:34.773Z,6130
2018-12-24T10:22:04.782Z,7307
2018-12-24T10:22:34.798Z,8273
2018-12-24T10:23:04.827Z,7463
2018-12-24T10:23:34.963Z,8263
2018-12-24T10:24:04.886Z,10430
2018-12-24T10:24:34.953Z,10473
2018-12-24T10:25:04.967Z,10220
2018-12-24T10:25:35.380Z,10103
2018-12-24T10:26:05.018Z,9917
2018-12-24T10:26:35.055Z,9180
2018-12-24T10:27:05.095Z,8167
2018-12-24T10:27:35.104Z,7167
2018-12-24T10:28:05.136Z,6047
2018-12-24T10:28:35.195Z,6350
2018-12-24T10:29:05.189Z,6193
2018-12-24T10:29:35.225Z,6170
2018-12-24T10:30:05.289Z,6230
2018-12-24T10:30:35.338Z,6377
2018-12-24T10:31:05.374Z,6910
2018-12-24T10:31:35.389Z,6760
2018-12-24T10:32:05.433Z,6947
2018-12-24T10:32:35.443Z,6437
2018-12-24T10:33:05.594Z,5990
2018-12-24T10:33:35.496Z,6310
2018-12-24T10:34:05.550Z,7197
2018-12-24T10:34:35.564Z,7180
2018-12-24T10:35:05.600Z,6293
2018-12-24T10:35:35.740Z,5923
2018-12-24T10:36:05.665Z,5897
2018-12-24T10:36:35.677Z,5730
2018-12-24T10:37:05.732Z,5923
2018-12-24T10:37:35.744Z,5940
2018-12-24T10:38:05.779Z,5933
2018-12-24T10:38:35.850Z,6540
2018-12-24T10:39:05.814Z,6823
2018-12-24T10:39:35.910Z,7060
2018-12-24T10:40:05.875Z,7290
2018-12-24T10:40:35.983Z,7597
2018-12-24T10:41:05.964Z,7463
2018-12-24T10:41:36.031Z,7457
2018-12-24T10:42:06.020Z,7380
2018-12-24T10:42:36.093Z,7693
2018-12-24T10:43:06.150Z,7253
2018-12-24T10:43:36.180Z,6643
2018-12-24T10:44:06.153Z,6387
2018-12-24T10:44:36.218Z,5973
2018-12-24T10:45:06.211Z,5370
2018-12-24T10:45:36.237Z,5520
2018-12-24T10:46:06.272Z,5403
2018-12-24T10:46:36.323Z,5083
2018-12-24T10:47:06.364Z,4860
2018-12-24T10:47:36.403Z,4617
2018-12-24T10:48:06.393Z,4190
2018-12-24T10:48:36.762Z,4350
2018-12-24T10:49:06.422Z,4707
2018-12-24T10:49:36.502Z,4367
2018-12-24T10:50:06.512Z,4023
2018-12-24T10:50:36.517Z,4067
2018-12-24T10:51:06.571Z,3980
2018-12-24T10:51:36.722Z,3833
2018-12-24T10:52:06.646Z,3810
2018-12-24T10:52:36.644Z,3887
2018-12-24T10:53:06.690Z,4503
2018-12-24T10:53:36.794Z,5530
2018-12-24T10:54:06.784Z,6293
2018-12-24T10:54:36.832Z,6513
2018-12-24T10:55:06.815Z,6763
2018-12-24T10:55:36.885Z,7263
2018-12-24T10:56:06.889Z,7830
2018-12-24T10:56:36.965Z,8130
2018-12-24T10:57:06.944Z,8620
2018-12-24T10:57:37.027Z,9170
2018-12-24T10:58:06.982Z,9413
2018-12-24T10:58:37.089Z,9513
2018-12-24T10:59:07.100Z,9367
2018-12-24T10:59:37.111Z,9453
2018-12-24T11:00:07.162Z,9817
2018-12-24T11:00:37.187Z,10133
2018-12-24T11:01:07.220Z,10537
2018-12-24T11:01:37.256Z,10897
2018-12-24T11:02:07.270Z,11227
2018-12-24T11:02:37.314Z,11140
2018-12-24T11:03:07.314Z,11187
2018-12-24T11:03:37.371Z,11857
2018-12-24T11:04:07.416Z,12660
2018-12-24T11:04:37.435Z,13260
2018-12-24T11:05:07.434Z,13250
2018-12-24T11:05:37.508Z,12820
2018-12-24T11:06:07.506Z,12370
2018-12-24T11:06:37.577Z,11780
2018-12-24T11:07:07.542Z,11113
2018-12-24T11:07:37.587Z,10653
2018-12-24T11:08:07.644Z,10593
2018-12-24T11:08:37.701Z,10797
2018-12-24T11:09:07.661Z,10960
2018-12-24T11:09:37.698Z,11150
2018-12-24T11:10:07.711Z,11487
2018-12-24T11:10:37.795Z,11903
2018-12-24T11:11:07.786Z,12300
2018-12-24T11:11:37.873Z,12570
2018-12-24T11:12:07.840Z,12330
2018-12-24T11:12:37.897Z,12177
2018-12-24T11:13:07.898Z,11960
2018-12-24T11:13:39.559Z,11450
2018-12-24T11:14:08.033Z,11210
2018-12-24T11:14:37.992Z,11200
2018-12-24T11:15:08.038Z,11510
2018-12-24T11:15:38.047Z,11840
2018-12-24T11:16:08.128Z,12000
2018-12-24T11:16:38.166Z,12173
2018-12-24T11:17:08.204Z,12277
2018-12-24T11:17:38.203Z,12393
2018-12-24T11:18:08.223Z,12407
2018-12-24T11:18:38.291Z,12257
2018-12-24T11:19:08.356Z,11673
2018-12-24T11:19:38.346Z,10873
2018-12-24T11:20:08.384Z,10040
2018-12-24T11:20:38.381Z,9693
2018-12-24T11:21:08.437Z,9477
2018-12-24T11:21:38.462Z,8960
2018-12-24T11:22:08.525Z,7837
2018-12-24T11:22:38.524Z,7723
2018-12-24T11:23:08.574Z,8383
2018-12-24T11:23:38.593Z,8767
2018-12-24T11:24:08.623Z,9127
2018-12-24T11:24:38.654Z,9287
2018-12-24T11:25:08.704Z,9767
2018-12-24T11:25:38.676Z,10397
2018-12-24T11:26:08.746Z,11100
2018-12-24T11:26:38.763Z,11777
2018-12-24T11:27:08.868Z,12547
2018-12-24T11:27:38.836Z,13260
2018-12-24T11:28:08.870Z,13247
2018-12-24T11:28:38.891Z,13153
2018-12-24T11:29:08.928Z,12920
2018-12-24T11:29:38.958Z,12637
2018-12-24T11:30:09.009Z,12430
2018-12-24T11:30:39.032Z,12533
2018-12-24T11:31:09.052Z,12453
2018-12-24T11:31:39.079Z,12470
2018-12-24T11:32:09.185Z,12363
2018-12-24T11:32:39.154Z,12273
2018-12-24T11:33:09.179Z,12090
2018-12-24T11:33:39.205Z,11693
2018-12-24T11:34:09.230Z,11170
2018-12-24T11:34:39.233Z,10803
2018-12-24T11:35:09.245Z,10517
2018-12-24T11:35:39.330Z,10390
2018-12-24T11:36:09.351Z,10580
2018-12-24T11:36:39.376Z,10883
2018-12-24T11:37:10.380Z,10927
2018-12-24T11:37:39.410Z,10880
2018-12-24T11:38:09.480Z,11127
2018-12-24T11:38:39.713Z,11317
2018-12-24T11:39:09.538Z,11080
2018-12-24T11:39:39.572Z,10957
2018-12-24T11:40:09.597Z,11220
2018-12-24T11:40:39.621Z,11987
2018-12-24T11:41:09.658Z,12907
2018-12-24T11:41:39.654Z,13547
2018-12-24T11:42:09.971Z,13720
2018-12-24T11:42:39.747Z,13870
2018-12-24T11:43:09.787Z,13887
2018-12-24T11:43:39.781Z,13677
2018-12-24T11:44:09.840Z,13610
2018-12-24T11:44:39.867Z,13527
2018-12-24T11:45:09.909Z,13377
2018-12-24T11:45:39.933Z,13590
2018-12-24T11:46:09.973Z,14010
2018-12-24T11:46:39.994Z,14243
2018-12-24T11:47:10.043Z,14377
2018-12-24T11:47:40.049Z,14517
2018-12-24T11:48:10.086Z,14610
2018-12-24T11:48:40.124Z,15047
2018-12-24T11:49:10.112Z,15453
2018-12-24T11:49:40.215Z,15593
2018-12-24T11:50:10.209Z,15350
2018-12-24T11:50:40.258Z,14903
2018-12-24T11:51:10.275Z,14590
2018-12-24T11:51:40.305Z,14070
2018-12-24T11:52:10.332Z,13430
2018-12-24T11:52:40.360Z,12763
2018-12-24T11:53:10.405Z,12267
2018-12-24T11:53:40.404Z,12170
2018-12-24T11:54:10.451Z,12427
2018-12-24T11:54:40.498Z,12870
2018-12-24T11:55:10.513Z,12993
2018-12-24T11:55:40.519Z,12733
2018-12-24T11:56:10.566Z,12340
2018-12-24T11:56:40.589Z,11967
2018-12-24T11:57:10.611Z,11780
2018-12-24T11:57:40.672Z,11733
2018-12-24T11:58:13.179Z,11810
2018-12-24T11:58:40.710Z,12030
2018-12-24T11:59:10.748Z,12267
2018-12-24T11:59:40.774Z,12463
2018-12-24T12:00:10.822Z,12600
2018-12-24T12:00:40.838Z,12550
2018-12-24T12:01:10.871Z,12270
2018-12-24T12:01:40.919Z,11983
2018-12-24T12:02:10.953Z,11707
2018-12-24T12:02:40.942Z,11373
2018-12-24T12:03:12.715Z,11100
2018-12-24T12:03:41.030Z,10887
2018-12-24T12:04:11.074Z,10813
2018-12-24T12:04:41.072Z,10893
2018-12-24T12:05:11.134Z,11177
2018-12-24T12:05:41.176Z,11613
2018-12-24T12:06:19.488Z,11790
2018-12-24T12:06:41.241Z,11770
2018-12-24T12:07:11.283Z,11703
2018-12-24T12:07:41.660Z,11743
2018-12-24T12:08:11.337Z,11883
2018-12-24T12:08:41.338Z,11987
2018-12-24T12:09:11.373Z,11777
2018-12-24T12:09:41.423Z,11333
2018-12-24T12:10:11.442Z,11073
2018-12-24T12:10:41.433Z,10960
2018-12-24T12:11:11.482Z,11127
2018-12-24T12:11:41.518Z,11407
2018-12-24T12:12:11.557Z,11630
2018-12-24T12:12:41.776Z,11770
2018-12-24T12:13:11.632Z,12150
2018-12-24T12:13:41.684Z,12603
2018-12-24T12:14:11.687Z,12920
2018-12-24T12:14:41.724Z,13073
2018-12-24T12:15:13.009Z,12880
2018-12-24T12:15:42.635Z,12733
2018-12-24T12:16:11.798Z,12563
2018-12-24T12:16:41.884Z,12190
2018-12-24T12:17:11.858Z,11723
2018-12-24T12:17:41.886Z,11103
2018-12-24T12:18:12.014Z,10407
2018-12-24T12:18:41.985Z,9920
2018-12-24T12:19:12.025Z,9670
2018-12-24T12:19:42.032Z,9390
2018-12-24T12:20:12.090Z,9467
2018-12-24T12:20:42.061Z,10417
2018-12-24T12:21:12.142Z,10567
2018-12-24T12:21:42.165Z,10290
2018-12-24T12:22:12.202Z,10253
2018-12-24T12:22:42.245Z,10420
2018-12-24T12:23:12.242Z,11110
2018-12-24T12:23:42.242Z,11497
2018-12-24T12:24:12.350Z,11670
2018-12-24T12:24:42.346Z,11737
2018-12-24T12:25:12.340Z,11867
2018-12-24T12:26:12.384Z,11737
2018-12-24T12:26:42.476Z,11640
2018-12-24T12:27:12.529Z,11653
2018-12-24T12:27:42.547Z,11637
2018-12-24T12:28:12.566Z,11677
2018-12-24T12:28:42.615Z,11747
2018-12-24T12:29:12.581Z,11707
2018-12-24T12:29:42.645Z,11663
2018-12-24T12:30:12.647Z,11657
2018-12-24T12:30:42.707Z,11533
2018-12-24T12:31:12.717Z,11263
2018-12-24T12:31:42.795Z,10940
2018-12-24T12:32:12.759Z,10633
2018-12-24T12:32:42.862Z,10547
2018-12-24T12:33:12.971Z,10607
2018-12-24T12:33:42.893Z,10600
2018-12-24T12:34:12.991Z,10467
2018-12-24T12:34:42.949Z,10223
2018-12-24T12:35:12.994Z,9913
2018-12-24T12:35:43.014Z,9613
2018-12-24T12:36:13.081Z,9337
2018-12-24T12:36:43.074Z,9257
2018-12-24T12:37:13.120Z,9433
2018-12-24T12:37:43.133Z,9730
2018-12-24T12:38:13.241Z,10167
2018-12-24T12:38:43.151Z,10263
2018-12-24T12:39:13.311Z,10157
2018-12-24T12:39:43.299Z,9887
2018-12-24T12:40:13.308Z,9553
2018-12-24T12:40:43.323Z,9403
2018-12-24T12:41:13.316Z,9723
2018-12-24T12:41:43.384Z,10233
2018-12-24T12:42:13.436Z,10617
2018-12-24T12:42:43.455Z,11087
2018-12-24T12:43:15.418Z,11607
2018-12-24T12:43:43.517Z,11853
2018-12-24T12:44:13.588Z,11617
2018-12-24T12:44:43.550Z,11117
2018-12-24T12:45:13.576Z,10850
2018-12-24T12:45:50.950Z,11120
2018-12-24T12:46:13.624Z,11553
2018-12-24T12:46:43.677Z,11593
2018-12-24T12:47:13.673Z,11217
2018-12-24T12:47:43.728Z,10730
2018-12-24T12:48:13.807Z,10980
2018-12-24T12:48:43.801Z,11630
2018-12-24T12:49:13.827Z,12013
2018-12-24T12:49:43.824Z,11107
2018-12-24T12:50:13.860Z,10130
2018-12-24T12:50:43.927Z,9630
2018-12-24T12:51:13.920Z,9650
2018-12-24T12:51:43.953Z,9953
2018-12-24T12:52:13.980Z,10077
2018-12-24T12:52:44.466Z,10173
2018-12-24T12:53:14.042Z,10413
2018-12-24T12:53:44.100Z,10453
2018-12-24T12:54:14.112Z,10090
2018-12-24T12:54:44.190Z,9977
2018-12-24T12:55:14.161Z,10353
2018-12-24T12:55:44.224Z,10813
2018-12-24T12:56:14.267Z,10890
2018-12-24T12:56:44.296Z,10467
2018-12-24T12:57:14.355Z,9883
2018-12-24T12:57:44.367Z,9757
2018-12-24T12:58:14.455Z,10150
2018-12-24T12:58:44.421Z,10203
2018-12-24T12:59:14.474Z,9563
2018-12-24T12:59:44.474Z,9597
2018-12-24T13:00:14.516Z,10330
2018-12-24T13:00:44.504Z,10890
2018-12-24T13:01:14.603Z,10723
2018-12-24T13:01:44.629Z,10413
2018-12-24T13:02:14.636Z,9940
2018-12-24T13:02:44.677Z,9800
2018-12-24T13:03:14.682Z,10297
2018-12-24T13:03:44.791Z,10620
2018-12-24T13:04:14.773Z,10467
2018-12-24T13:04:44.852Z,9990
2018-12-24T13:05:14.831Z,9583
2018-12-24T13:05:44.835Z,9287
2018-12-24T13:06:14.895Z,9160
2018-12-24T13:06:44.942Z,8997
2018-12-24T13:07:14.953Z,8757
2018-12-24T13:07:44.962Z,8363
2018-12-24T13:08:15.002Z,7873
2018-12-24T13:08:45.019Z,7483
2018-12-24T13:09:15.057Z,6990
2018-12-24T13:09:45.121Z,6963
2018-12-24T13:10:15.139Z,7463
2018-12-24T13:10:45.147Z,8000
2018-12-24T13:11:15.189Z,8187
2018-12-24T13:11:45.203Z,8007
2018-12-24T13:12:15.216Z,8137
2018-12-24T13:12:45.271Z,8757
2018-12-24T13:13:15.335Z,9347
2018-12-24T13:13:45.330Z,9220
2018-12-24T13:14:15.391Z,8837
2018-12-24T13:14:45.496Z,8603
2018-12-24T13:15:15.509Z,8750
2018-12-24T13:15:45.494Z,9120
2018-12-24T13:16:15.489Z,9283
2018-12-24T13:16:45.514Z,9230
2018-12-24T13:17:15.564Z,8947
2018-12-24T13:17:45.658Z,8880
2018-12-24T13:18:15.662Z,9290
2018-12-24T13:18:45.672Z,9153
2018-12-24T13:19:15.671Z,8433
2018-12-24T13:19:45.792Z,7707
2018-12-24T13:20:15.734Z,7330
2018-12-24T13:20:45.795Z,7577
2018-12-24T13:21:15.820Z,8230
2018-12-24T13:21:45.798Z,8290
2018-12-24T13:22:15.911Z,7530
2018-12-24T13:22:45.925Z,6800
2018-12-24T13:23:15.921Z,6653
2018-12-24T13:23:45.934Z,6730
2018-12-24T13:24:15.977Z,6587
2018-12-24T13:24:46.092Z,6383
2018-12-24T13:25:16.077Z,6370
2018-12-24T13:25:46.044Z,6543
2018-12-24T13:26:16.109Z,6737
2018-12-24T13:26:46.165Z,6800
2018-12-24T13:27:16.194Z,6733
2018-12-24T13:27:46.206Z,6830
2018-12-24T13:28:16.229Z,6953
2018-12-24T13:28:46.288Z,6847
2018-12-24T13:29:16.276Z,6837
2018-12-24T13:29:46.376Z,7023
2018-12-24T13:30:16.365Z,7153
2018-12-24T13:30:46.356Z,6810
2018-12-24T13:31:16.406Z,6103
2018-12-24T13:31:46.461Z,5607
2018-12-24T13:32:16.442Z,5400
2018-12-24T13:32:46.546Z,5280
2018-12-24T13:33:16.575Z,5250
2018-12-24T13:33:46.590Z,5183
2018-12-24T13:34:16.610Z,4900
2018-12-24T13:34:47.005Z,4710
2018-12-24T13:35:16.647Z,4760
2018-12-24T13:35:46.656Z,4867
2018-12-24T13:36:16.711Z,4900
2018-12-24T13:36:46.717Z,4783
2018-12-24T13:37:16.760Z,4767
2018-12-24T13:37:46.802Z,4817
2018-12-24T13:38:16.812Z,4807
2018-12-24T13:38:46.843Z,4633
2018-12-24T13:39:16.865Z,4270
2018-12-24T13:39:46.974Z,4043